Alder Grove, Washington
Current Conditions -  °F | °C
As of 5:25 PM on Thursday 27 Nov 2014 (Local Time) from KSHN Reporting Station
Light Rain Light Rain  
Wind Chill: 55°   Ceiling: 2300
Heat Index: 55°   Visibility: 2.5mi
Dew Point: 52°   Wind: 9mph
Humidity: 89%   Direction: 210°SSW
Pressure: 29.74"   Gusts: 21mph
Location:  47.555°N, 123.746°W
Report Text: KSHN 280125Z AUTO 21008G18KT 2 1/2SM -RA BR FEW010 SCT018 OVC023 13/11 A2974 RMK AO2 VIS 2V4 P0007 T01280111
Loading
Personal Weather Stations






























Interactive Weather Map New forecast layout! Learn more

10-Day Weather Forecast

Advertisements
Track Severe Weather on mobile